AirNav   $300 off a Bose A20
 
 1099 users online  

3D8 Bordner Airport
Bowling Green, Ohio, USA

GOING TO BOWLING GREEN?


FAA INFORMATION EFFECTIVE 18 JULY 2019

Location

FAA Identifier: 3D8
Lat/Long: 41-20-09.6000N / 083-43-23.5000W
41-20.160000N / 083-43.391667W
41.3360000 / -83.7231944
(estimated)
Elevation: 690 ft. / 210 m (estimated)
Variation: 05W (1985)
From city: 4 miles SW of BOWLING GREEN, OH
Time zone: UTC -4 (UTC -5 during Standard Time)
Zip code: 43569

Airport Operations

Airport use: Open to the public
Activation date: 11/1960
Control tower: no
ARTCC: CLEVELAND CENTER
FSS: CLEVELAND FLIGHT SERVICE STATION
NOTAMs facility: CLE (NOTAM-D service available)
Attendance: UNATNDD
Wind indicator: yes
Segmented circle: no
Lights: NSTD SOLAR LIGHTS.

Airport Communications

CTAF: 122.9
WX AWOS-3 at 1G0 (5 nm NE): 120.725 (419-354-1415)
WX ASOS at TOL (16 nm N): PHONE 419-865-6924
WX AWOS-3 at FZI (17 nm SE): 124.625 (419-436-0053)
WX ASOS at TDZ (17 nm NE): 121.575 (419-838-5034)
WX ASOS at FDY (20 nm S): 132.85 (419-427-8524)

Nearby radio navigation aids

VOR radial/distance  VOR name  Freq  Var
VWVr211/7.9WATERVILLE VOR/DME113.1002W
FBCr006/22.9FLAG CITY VORTAC108.2002W

 
NDB name  Hdg/Dist  Freq  Var  ID
TIFFIN307/27.126905WTII - .. ..
ADRIAN160/35.827806WADG .- -.. --.
PORT CLINTON261/40.042307WPCW .--. -.-. .--

Airport Services

Runway Information

Runway 9/27

Dimensions: 2623 x 30 ft. / 799 x 9 m
Surface: turf, in fair condition
Weight bearing capacity: 
Single wheel: 5.0
Runway edge lights: low intensity
RUNWAY 9  RUNWAY 27
Latitude: 41-20.164743N41-20.153838N
Longitude: 083-43.677917W083-43.105080W
Elevation: 684.5 ft.689.5 ft.
Traffic pattern: rightleft
Runway heading: 096 magnetic, 091 true276 magnetic, 271 true
Runway end identifier lights: nono
Obstructions: 29 ft. pline, marked, 48 ft. from runway, 1:1 slope to clear15 ft. brush, 45 ft. right of centerline

Airport Ownership and Management from official FAA records

Ownership: Privately-owned
Owner: BERNIE STEINBAUGH
16662 HODGMAN RD
WESTON, OH 43569
Phone 419-353-4732
Manager: BERNIE STEINBAUGH
16662 HODGMAN RD
WESTON, OH 43569
Phone 419-353-4732

Airport Operational Statistics

Aircraft based on the field: 3
Single engine airplanes: 3
    

Additional Remarks

LNDG AREA TURF AND ASPH WITH GRASS GROWING INTO SOME OF THE ASPH. LAND AT OWN RISK. W 540 FT. TURF, THEN 800 FT TURF/ASPH, THEN 615 FT ASPH/GRAVEL, THEN E 660 FT TURF/ASPH. E 50 FT UNUSABLE BROKEN ASPH, GRAVEL, RUTS, POTHOLES.
RWY CLSD INDFLY.
FOR CD CTC TOLEDO APCH AT 419-865-1495

Instrument Procedures

There are no published instrument procedures at 3D8.

Some nearby airports with instrument procedures:

1G0 - Wood County Airport (5 nm NE)
KTOL - Toledo Express Airport (16 nm N)
7W5 - Henry County Airport (16 nm W)
KFZI - Fostoria Metropolitan Airport (17 nm SE)
KTDZ - Toledo Executive Airport (17 nm NE)
KFDY - Findlay Airport (20 nm S)
 
Loc | Ops | Rwys | IFR | FBO | Links
Com | Nav | Svcs | Stats | Notes

City of Findlay
 
Area around 3D8 (Bordner Airport)
 
Road maps at: MapQuest Bing Google
 
Aerial photo
WARNING: Photo may not be current or correct
Aerial photo of 3D8 (Bordner Airport)
Do you have a better or more recent aerial photo of Bordner Airport that you would like to share? If so, please send us your photo.

 
Sectional chart

 
Airport distance calculator
Flying to Bordner Airport? Find the distance to fly.

From to 3D8

Sunrise and sunset
Times for 18-Jul-2019
 Local
(UTC-4)
 Zulu
(UTC)
Morning civil twilight05:4609:46
Sunrise06:1810:18
Sunset21:0401:04
Evening civil twilight21:3701:37

Current date and time
Zulu (UTC)  18-Jul-2019 12:30:59
Local (UTC-4)  18-Jul-2019 08:30:59
 
METAR
KTOL 
15nm N 
181152Z 00000KT 10SM CLR 24/19 A2995 RMK AO2 SLP137 70039 T02440194 10244 20211 53011
KTDZ 
18nm NE 
181153Z AUTO 17003KT 10SM CLR 24/19 A2996 RMK AO2 SLP140 70011 T02390194 10239 20217 53010
KFDY 
19nm S 
181153Z AUTO 16004KT 9SM CLR 25/23 A2996 RMK AO2 SLP134 70027 T02500228 10250 20228 53010
KOWX 
21nm SW 
181219Z AUTO 22003KT 7SM CLR 23/22 A2999 RMK AO1
KDUH 
24nm N 
181217Z AUTO 15003KT 10SM CLR 24/21 A2996 RMK AO2 T02420206
KUSE 
24nm NW 
181215Z AUTO 00000KT 4SM BR CLR 25/25 A2997 RMK AO2
TAF
KTOL 
15nm N 
181121Z 1812/1912 VRB04KT P6SM FEW035 BKN200 FM181900 21010KT P6SM SCT060 BKN200 FM191000 24008KT P6SM SCT040 BKN150
KFDY 
19nm S 
181121Z 1812/1912 VRB03KT P6SM FEW040 BKN200 FM181900 22010KT P6SM SCT050 BKN200 FM190300 19008KT P6SM SCT200 FM190900 22008KT P6SM FEW060
NOTAMs
Click for the latest NOTAMs
NOTAMs are issued by the DoD/FAA and will open in a separate window not controlled by AirNav.

 

 
 

Would you like to see your business listed on this page?

 If your business provides an interesting product or service to pilots, flight crews, aircraft, or users of the Bordner Airport, you should consider listing it here.  To start the listing process, click on the button below
 
Add a business
 

Other Pages about Bordner Airport

Update a link
 
Copyright © AirNav, LLC. All rights reserved. Privacy Policy  Contact